sensor_id;sensor_type;location;lat;lon;timestamp;temperature;humidity
9802;DHT22;4940;50.900;4.672;2022-11-06T00:00:09;10.10;99.90
9802;DHT22;4940;50.900;4.672;2022-11-06T00:02:37;10.80;99.90
9802;DHT22;4940;50.900;4.672;2022-11-06T00:05:05;10.20;99.90
9802;DHT22;4940;50.900;4.672;2022-11-06T00:07:47;10.20;99.90
9802;DHT22;4940;50.900;4.672;2022-11-06T00:10:15;10.20;99.90
9802;DHT22;4940;50.900;4.672;2022-11-06T00:12:44;10.10;99.90
9802;DHT22;4940;50.900;4.672;2022-11-06T00:20:07;10.00;99.90
9802;DHT22;4940;50.900;4.672;2022-11-06T00:22:35;10.20;99.90
9802;DHT22;4940;50.900;4.672;2022-11-06T00:25:03;10.10;99.90
9802;DHT22;4940;50.900;4.672;2022-11-06T00:27:34;10.20;99.90
9802;DHT22;4940;50.900;4.672;2022-11-06T00:30:05;10.00;99.90
9802;DHT22;4940;50.900;4.672;2022-11-06T00:37:28;10.40;99.90
9802;DHT22;4940;50.900;4.672;2022-11-06T00:47:20;10.50;99.90
9802;DHT22;4940;50.900;4.672;2022-11-06T01:04:33;10.70;99.90
9802;DHT22;4940;50.900;4.672;2022-11-06T01:11:57;10.90;99.90
9802;DHT22;4940;50.900;4.672;2022-11-06T01:19:20;10.90;99.90
9802;DHT22;4940;50.900;4.672;2022-11-06T01:21:50;10.80;99.90
9802;DHT22;4940;50.900;4.672;2022-11-06T01:24:20;10.90;99.90
9802;DHT22;4940;50.900;4.672;2022-11-06T01:29:15;10.90;99.90
9802;DHT22;4940;50.900;4.672;2022-11-06T01:31:44;10.90;99.90
9802;DHT22;4940;50.900;4.672;2022-11-06T01:34:12;10.90;99.90
9802;DHT22;4940;50.900;4.672;2022-11-06T01:36:39;10.90;99.90
9802;DHT22;4940;50.900;4.672;2022-11-06T01:39:11;10.90;99.90
9802;DHT22;4940;50.900;4.672;2022-11-06T01:41:39;11.10;99.90
9802;DHT22;4940;50.900;4.672;2022-11-06T01:47:22;10.90;99.90
9802;DHT22;4940;50.900;4.672;2022-11-06T01:49:51;10.90;99.90
9802;DHT22;4940;50.900;4.672;2022-11-06T01:52:19;10.90;99.90
9802;DHT22;4940;50.900;4.672;2022-11-06T01:54:52;10.90;99.90
9802;DHT22;4940;50.900;4.672;2022-11-06T01:57:21;11.00;99.90
9802;DHT22;4940;50.900;4.672;2022-11-06T01:59:49;11.00;99.90
9802;DHT22;4940;50.900;4.672;2022-11-06T02:02:18;11.10;99.90
9802;DHT22;4940;50.900;4.672;2022-11-06T02:04:47;11.00;99.90
9802;DHT22;4940;50.900;4.672;2022-11-06T02:07:14;11.00;99.90
9802;DHT22;4940;50.900;4.672;2022-11-06T02:12:18;11.00;99.90
9802;DHT22;4940;50.900;4.672;2022-11-06T02:14:55;11.10;99.90
9802;DHT22;4940;50.900;4.672;2022-11-06T02:17:36;11.00;99.90
9802;DHT22;4940;50.900;4.672;2022-11-06T02:20:12;11.10;99.90
9802;DHT22;4940;50.900;4.672;2022-11-06T02:23:17;11.00;99.90
9802;DHT22;4940;50.900;4.672;2022-11-06T02:25:51;11.10;99.90
9802;DHT22;4940;50.900;4.672;2022-11-06T02:28:24;11.10;99.90
9802;DHT22;4940;50.900;4.672;2022-11-06T02:30:56;11.10;99.90
9802;DHT22;4940;50.900;4.672;2022-11-06T02:33:27;12.20;99.90
9802;DHT22;4940;50.900;4.672;2022-11-06T02:35:59;11.10;99.90
9802;DHT22;4940;50.900;4.672;2022-11-06T02:38:30;11.10;99.90
9802;DHT22;4940;50.900;4.672;2022-11-06T02:41:01;11.00;99.90
9802;DHT22;4940;50.900;4.672;2022-11-06T02:43:34;11.10;99.90
9802;DHT22;4940;50.900;4.672;2022-11-06T02:46:07;11.00;99.90
9802;DHT22;4940;50.900;4.672;2022-11-06T02:48:39;11.00;99.90
9802;DHT22;4940;50.900;4.672;2022-11-06T02:51:09;11.00;99.90
9802;DHT22;4940;50.900;4.672;2022-11-06T02:53:40;11.10;99.90
9802;DHT22;4940;50.900;4.672;2022-11-06T02:56:11;11.00;99.90
9802;DHT22;4940;50.900;4.672;2022-11-06T02:58:45;10.90;99.90
9802;DHT22;4940;50.900;4.672;2022-11-06T03:01:16;10.80;99.90
9802;DHT22;4940;50.900;4.672;2022-11-06T03:03:49;10.90;99.90
9802;DHT22;4940;50.900;4.672;2022-11-06T03:06:19;10.90;99.90
9802;DHT22;4940;50.900;4.672;2022-11-06T03:08:51;10.80;99.90
9802;DHT22;4940;50.900;4.672;2022-11-06T03:11:21;10.80;99.90
9802;DHT22;4940;50.900;4.672;2022-11-06T03:13:55;10.80;99.90
9802;DHT22;4940;50.900;4.672;2022-11-06T03:16:38;10.70;99.90
9802;DHT22;4940;50.900;4.672;2022-11-06T03:19:11;10.80;99.90
9802;DHT22;4940;50.900;4.672;2022-11-06T03:21:49;10.50;99.90
9802;DHT22;4940;50.900;4.672;2022-11-06T03:24:22;11.00;99.90
9802;DHT22;4940;50.900;4.672;2022-11-06T03:26:52;10.90;99.90
9802;DHT22;4940;50.900;4.672;2022-11-06T03:29:27;10.90;99.90
9802;DHT22;4940;50.900;4.672;2022-11-06T03:32:00;10.90;99.90
9802;DHT22;4940;50.900;4.672;2022-11-06T03:34:37;10.90;99.90
9802;DHT22;4940;50.900;4.672;2022-11-06T03:37:12;11.00;99.90
9802;DHT22;4940;50.900;4.672;2022-11-06T03:39:45;11.00;99.90
9802;DHT22;4940;50.900;4.672;2022-11-06T03:42:16;11.00;99.90
9802;DHT22;4940;50.900;4.672;2022-11-06T03:44:48;11.00;99.90
9802;DHT22;4940;50.900;4.672;2022-11-06T03:47:19;11.00;99.90
9802;DHT22;4940;50.900;4.672;2022-11-06T03:49:52;10.90;99.90
9802;DHT22;4940;50.900;4.672;2022-11-06T03:52:26;11.00;99.90
9802;DHT22;4940;50.900;4.672;2022-11-06T03:54:56;10.80;99.90
9802;DHT22;4940;50.900;4.672;2022-11-06T03:57:27;11.10;99.90
9802;DHT22;4940;50.900;4.672;2022-11-06T04:00:01;11.00;99.90
9802;DHT22;4940;50.900;4.672;2022-11-06T04:02:32;11.00;99.90
9802;DHT22;4940;50.900;4.672;2022-11-06T04:05:05;11.00;99.90
9802;DHT22;4940;50.900;4.672;2022-11-06T04:07:35;10.90;99.90
9802;DHT22;4940;50.900;4.672;2022-11-06T04:10:07;10.90;99.90
9802;DHT22;4940;50.900;4.672;2022-11-06T04:12:54;10.90;99.90
9802;DHT22;4940;50.900;4.672;2022-11-06T04:15:48;10.90;99.90
9802;DHT22;4940;50.900;4.672;2022-11-06T04:18:17;10.90;99.90
9802;DHT22;4940;50.900;4.672;2022-11-06T04:20:51;10.80;99.90
9802;DHT22;4940;50.900;4.672;2022-11-06T04:23:43;10.90;99.90
9802;DHT22;4940;50.900;4.672;2022-11-06T04:26:41;11.00;99.90
9802;DHT22;4940;50.900;4.672;2022-11-06T04:29:17;10.90;99.90
9802;DHT22;4940;50.900;4.672;2022-11-06T04:31:53;10.80;99.90
9802;DHT22;4940;50.900;4.672;2022-11-06T04:34:28;10.80;99.90
9802;DHT22;4940;50.900;4.672;2022-11-06T04:37:05;10.80;99.90
9802;DHT22;4940;50.900;4.672;2022-11-06T04:39:40;10.50;99.90
9802;DHT22;4940;50.900;4.672;2022-11-06T04:42:15;10.90;99.90
9802;DHT22;4940;50.900;4.672;2022-11-06T04:44:48;10.70;99.90
9802;DHT22;4940;50.900;4.672;2022-11-06T04:47:19;10.60;99.90
9802;DHT22;4940;50.900;4.672;2022-11-06T04:49:49;10.70;99.90
9802;DHT22;4940;50.900;4.672;2022-11-06T04:52:20;10.90;99.90
9802;DHT22;4940;50.900;4.672;2022-11-06T04:54:49;10.80;99.90
9802;DHT22;4940;50.900;4.672;2022-11-06T05:02:11;10.50;99.90
9802;DHT22;4940;50.900;4.672;2022-11-06T05:04:40;10.40;99.90
9802;DHT22;4940;50.900;4.672;2022-11-06T05:07:08;10.40;99.90
9802;DHT22;4940;50.900;4.672;2022-11-06T05:12:02;10.40;99.90
9802;DHT22;4940;50.900;4.672;2022-11-06T05:16:58;10.40;99.90
9802;DHT22;4940;50.900;4.672;2022-11-06T05:19:26;10.40;99.90
9802;DHT22;4940;50.900;4.672;2022-11-06T05:21:54;10.60;99.90
9802;DHT22;4940;50.900;4.672;2022-11-06T05:36:57;10.20;99.90
9802;DHT22;4940;50.900;4.672;2022-11-06T05:39:24;10.40;99.90
9802;DHT22;4940;50.900;4.672;2022-11-06T05:54:10;10.70;99.90
9802;DHT22;4940;50.900;4.672;2022-11-06T05:59:05;10.90;99.90
9802;DHT22;4940;50.900;4.672;2022-11-06T06:06:27;10.90;99.90
9802;DHT22;4940;50.900;4.672;2022-11-06T06:11:23;10.90;99.90
9802;DHT22;4940;50.900;4.672;2022-11-06T06:18:48;11.10;99.90
9802;DHT22;4940;50.900;4.672;2022-11-06T06:28:39;10.90;99.90
9802;DHT22;4940;50.900;4.672;2022-11-06T06:31:06;11.10;99.90
9802;DHT22;4940;50.900;4.672;2022-11-06T06:36:02;11.20;99.90
9802;DHT22;4940;50.900;4.672;2022-11-06T06:38:30;11.10;99.90
9802;DHT22;4940;50.900;4.672;2022-11-06T06:41:00;11.20;99.90
9802;DHT22;4940;50.900;4.672;2022-11-06T06:45:58;11.30;99.90
9802;DHT22;4940;50.900;4.672;2022-11-06T06:50:55;11.20;99.90
9802;DHT22;4940;50.900;4.672;2022-11-06T06:53:23;11.30;99.90
9802;DHT22;4940;50.900;4.672;2022-11-06T07:00:46;11.30;99.90
9802;DHT22;4940;50.900;4.672;2022-11-06T07:03:14;11.30;99.90
9802;DHT22;4940;50.900;4.672;2022-11-06T07:13:04;11.30;99.90
9802;DHT22;4940;50.900;4.672;2022-11-06T07:18:03;11.40;99.90
9802;DHT22;4940;50.900;4.672;2022-11-06T07:20:32;11.50;99.90
9802;DHT22;4940;50.900;4.672;2022-11-06T07:23:04;11.50;99.90
9802;DHT22;4940;50.900;4.672;2022-11-06T07:28:00;11.50;99.90
9802;DHT22;4940;50.900;4.672;2022-11-06T07:37:51;11.60;99.90
9802;DHT22;4940;50.900;4.672;2022-11-06T07:52:35;11.80;99.90
9802;DHT22;4940;50.900;4.672;2022-11-06T07:55:05;12.00;99.90
9802;DHT22;4940;50.900;4.672;2022-11-06T07:57:35;11.90;99.90
9802;DHT22;4940;50.900;4.672;2022-11-06T08:00:04;11.90;99.90
9802;DHT22;4940;50.900;4.672;2022-11-06T08:12:22;12.00;99.90
9802;DHT22;4940;50.900;4.672;2022-11-06T08:29:35;12.30;99.90
9802;DHT22;4940;50.900;4.672;2022-11-06T08:39:24;13.10;99.90
9802;DHT22;4940;50.900;4.672;2022-11-06T08:46:49;13.90;99.90
9802;DHT22;4940;50.900;4.672;2022-11-06T09:04:01;14.70;99.90
9802;DHT22;4940;50.900;4.672;2022-11-06T09:18:46;14.00;99.90
9802;DHT22;4940;50.900;4.672;2022-11-06T09:21:14;13.90;99.90
9802;DHT22;4940;50.900;4.672;2022-11-06T09:31:06;13.70;99.90
9802;DHT22;4940;50.900;4.672;2022-11-06T09:36:02;13.70;99.90
9802;DHT22;4940;50.900;4.672;2022-11-06T09:38:31;13.70;99.90
9802;DHT22;4940;50.900;4.672;2022-11-06T09:41:00;13.70;99.90
9802;DHT22;4940;50.900;4.672;2022-11-06T09:43:40;13.70;99.90
9802;DHT22;4940;50.900;4.672;2022-11-06T09:46:20;13.70;99.90
9802;DHT22;4940;50.900;4.672;2022-11-06T09:48:52;13.60;99.90
9802;DHT22;4940;50.900;4.672;2022-11-06T09:51:30;13.70;99.90
9802;DHT22;4940;50.900;4.672;2022-11-06T09:54:03;12.40;99.90
9802;DHT22;4940;50.900;4.672;2022-11-06T09:56:34;13.70;99.90
9802;DHT22;4940;50.900;4.672;2022-11-06T09:59:04;13.60;99.90
9802;DHT22;4940;50.900;4.672;2022-11-06T10:01:39;13.70;99.90
9802;DHT22;4940;50.900;4.672;2022-11-06T10:04:17;13.60;99.90
9802;DHT22;4940;50.900;4.672;2022-11-06T10:09:16;13.50;99.90
9802;DHT22;4940;50.900;4.672;2022-11-06T10:11:59;13.50;99.90
9802;DHT22;4940;50.900;4.672;2022-11-06T10:14:39;13.40;99.90
9802;DHT22;4940;50.900;4.672;2022-11-06T10:17:14;13.40;99.90
9802;DHT22;4940;50.900;4.672;2022-11-06T10:19:47;13.40;99.90
9802;DHT22;4940;50.900;4.672;2022-11-06T10:22:16;13.30;99.90
9802;DHT22;4940;50.900;4.672;2022-11-06T10:24:46;13.30;99.90
9802;DHT22;4940;50.900;4.672;2022-11-06T10:27:15;13.20;99.90
9802;DHT22;4940;50.900;4.672;2022-11-06T10:29:58;13.30;99.90
9802;DHT22;4940;50.900;4.672;2022-11-06T10:35:37;13.30;99.90
9802;DHT22;4940;50.900;4.672;2022-11-06T10:38:09;13.10;99.90
9802;DHT22;4940;50.900;4.672;2022-11-06T10:40:42;13.30;99.90
9802;DHT22;4940;50.900;4.672;2022-11-06T10:43:20;13.20;99.90
9802;DHT22;4940;50.900;4.672;2022-11-06T10:45:51;13.30;99.90
9802;DHT22;4940;50.900;4.672;2022-11-06T10:48:22;13.30;99.90
9802;DHT22;4940;50.900;4.672;2022-11-06T10:51:15;13.20;99.90
9802;DHT22;4940;50.900;4.672;2022-11-06T10:53:54;13.30;99.90
9802;DHT22;4940;50.900;4.672;2022-11-06T10:56:36;13.30;99.90
9802;DHT22;4940;50.900;4.672;2022-11-06T10:59:06;13.40;99.90
9802;DHT22;4940;50.900;4.672;2022-11-06T11:11:24;16.10;99.90
9802;DHT22;4940;50.900;4.672;2022-11-06T11:14:18;13.40;99.90
9802;DHT22;4940;50.900;4.672;2022-11-06T11:19:25;13.80;99.90
9802;DHT22;4940;50.900;4.672;2022-11-06T11:21:54;13.70;99.90
9802;DHT22;4940;50.900;4.672;2022-11-06T11:24:22;13.60;99.90
9802;DHT22;4940;50.900;4.672;2022-11-06T11:26:51;13.90;99.90
9802;DHT22;4940;50.900;4.672;2022-11-06T11:29:23;13.90;99.90
9802;DHT22;4940;50.900;4.672;2022-11-06T11:31:53;13.90;99.90
9802;DHT22;4940;50.900;4.672;2022-11-06T11:34:23;13.90;99.90
9802;DHT22;4940;50.900;4.672;2022-11-06T11:36:53;14.00;99.90
9802;DHT22;4940;50.900;4.672;2022-11-06T11:39:23;13.90;99.90
9802;DHT22;4940;50.900;4.672;2022-11-06T11:41:52;13.90;99.90
9802;DHT22;4940;50.900;4.672;2022-11-06T11:44:20;14.00;99.90
9802;DHT22;4940;50.900;4.672;2022-11-06T11:46:49;13.90;99.90
9802;DHT22;4940;50.900;4.672;2022-11-06T11:49:28;13.80;99.90
9802;DHT22;4940;50.900;4.672;2022-11-06T11:51:56;13.80;99.90
9802;DHT22;4940;50.900;4.672;2022-11-06T11:56:54;13.60;99.90
9802;DHT22;4940;50.900;4.672;2022-11-06T11:59:26;13.60;99.90
9802;DHT22;4940;50.900;4.672;2022-11-06T12:01:55;13.70;99.90
9802;DHT22;4940;50.900;4.672;2022-11-06T12:04:26;13.60;99.90
9802;DHT22;4940;50.900;4.672;2022-11-06T12:06:56;13.60;99.90
9802;DHT22;4940;50.900;4.672;2022-11-06T12:09:25;13.60;99.90
9802;DHT22;4940;50.900;4.672;2022-11-06T12:11:55;13.50;99.90
9802;DHT22;4940;50.900;4.672;2022-11-06T12:14:37;13.50;99.90
9802;DHT22;4940;50.900;4.672;2022-11-06T12:17:12;13.40;99.90
9802;DHT22;4940;50.900;4.672;2022-11-06T12:19:45;13.30;99.90
9802;DHT22;4940;50.900;4.672;2022-11-06T12:22:20;13.30;99.90
9802;DHT22;4940;50.900;4.672;2022-11-06T12:24:53;13.20;99.90
9802;DHT22;4940;50.900;4.672;2022-11-06T12:27:23;13.20;99.90
9802;DHT22;4940;50.900;4.672;2022-11-06T12:30:00;13.10;99.90
9802;DHT22;4940;50.900;4.672;2022-11-06T12:32:39;13.00;99.90
9802;DHT22;4940;50.900;4.672;2022-11-06T12:35:17;12.90;99.90
9802;DHT22;4940;50.900;4.672;2022-11-06T12:37:54;12.90;99.90
9802;DHT22;4940;50.900;4.672;2022-11-06T12:40:27;12.80;99.90
9802;DHT22;4940;50.900;4.672;2022-11-06T12:45:37;12.60;99.90
9802;DHT22;4940;50.900;4.672;2022-11-06T12:48:17;12.50;99.90
9802;DHT22;4940;50.900;4.672;2022-11-06T12:50:52;12.50;99.90
9802;DHT22;4940;50.900;4.672;2022-11-06T12:53:37;12.30;99.90
9802;DHT22;4940;50.900;4.672;2022-11-06T12:56:14;12.30;99.90
9802;DHT22;4940;50.900;4.672;2022-11-06T13:01:48;12.00;99.90
9802;DHT22;4940;50.900;4.672;2022-11-06T13:04:34;12.00;99.90
9802;DHT22;4940;50.900;4.672;2022-11-06T13:07:37;11.90;99.90
9802;DHT22;4940;50.900;4.672;2022-11-06T13:13:12;11.80;99.90
9802;DHT22;4940;50.900;4.672;2022-11-06T13:15:48;11.70;99.90
9802;DHT22;4940;50.900;4.672;2022-11-06T13:18:23;11.70;99.90
9802;DHT22;4940;50.900;4.672;2022-11-06T13:20:56;11.60;99.90
9802;DHT22;4940;50.900;4.672;2022-11-06T13:23:28;11.70;99.90
9802;DHT22;4940;50.900;4.672;2022-11-06T13:25:59;11.50;99.90
9802;DHT22;4940;50.900;4.672;2022-11-06T13:28:32;11.60;99.90
9802;DHT22;4940;50.900;4.672;2022-11-06T13:31:02;11.50;99.90
9802;DHT22;4940;50.900;4.672;2022-11-06T13:33:36;11.40;99.90
9802;DHT22;4940;50.900;4.672;2022-11-06T13:36:05;11.50;99.90
9802;DHT22;4940;50.900;4.672;2022-11-06T13:38:35;11.50;99.90
9802;DHT22;4940;50.900;4.672;2022-11-06T13:41:06;11.40;99.90
9802;DHT22;4940;50.900;4.672;2022-11-06T13:43:40;11.40;99.90
9802;DHT22;4940;50.900;4.672;2022-11-06T13:46:18;11.20;99.90
9802;DHT22;4940;50.900;4.672;2022-11-06T13:48:55;11.20;99.90
9802;DHT22;4940;50.900;4.672;2022-11-06T13:51:33;11.20;99.90
9802;DHT22;4940;50.900;4.672;2022-11-06T13:54:10;11.20;99.90
9802;DHT22;4940;50.900;4.672;2022-11-06T13:59:57;11.00;99.90
9802;DHT22;4940;50.900;4.672;2022-11-06T14:05:53;10.90;99.90
9802;DHT22;4940;50.900;4.672;2022-11-06T14:08:24;10.80;99.90
9802;DHT22;4940;50.900;4.672;2022-11-06T14:10:56;10.70;99.90
9802;DHT22;4940;50.900;4.672;2022-11-06T14:13:26;10.80;99.90
9802;DHT22;4940;50.900;4.672;2022-11-06T14:16:05;10.70;99.90
9802;DHT22;4940;50.900;4.672;2022-11-06T14:18:33;10.80;99.90
9802;DHT22;4940;50.900;4.672;2022-11-06T14:21:40;10.80;99.90
9802;DHT22;4940;50.900;4.672;2022-11-06T14:27:05;10.50;99.90
9802;DHT22;4940;50.900;4.672;2022-11-06T14:29:57;10.50;99.90
9802;DHT22;4940;50.900;4.672;2022-11-06T14:32:42;10.40;99.90
9802;DHT22;4940;50.900;4.672;2022-11-06T14:44:27;10.20;99.90
9802;DHT22;4940;50.900;4.672;2022-11-06T14:46:58;10.20;99.90
9802;DHT22;4940;50.900;4.672;2022-11-06T14:49:34;10.20;99.90
9802;DHT22;4940;50.900;4.672;2022-11-06T14:52:05;10.10;99.90
9802;DHT22;4940;50.900;4.672;2022-11-06T14:54:36;10.10;99.90
9802;DHT22;4940;50.900;4.672;2022-11-06T14:57:06;10.00;99.90
9802;DHT22;4940;50.900;4.672;2022-11-06T14:59:35;9.90;99.90
9802;DHT22;4940;50.900;4.672;2022-11-06T15:02:15;9.80;99.90
9802;DHT22;4940;50.900;4.672;2022-11-06T15:04:45;9.80;99.90
9802;DHT22;4940;50.900;4.672;2022-11-06T15:07:53;9.80;99.90
9802;DHT22;4940;50.900;4.672;2022-11-06T15:10:49;9.80;99.90
9802;DHT22;4940;50.900;4.672;2022-11-06T15:13:28;10.20;99.90
9802;DHT22;4940;50.900;4.672;2022-11-06T15:16:02;9.70;99.90
9802;DHT22;4940;50.900;4.672;2022-11-06T15:18:35;9.50;99.90
9802;DHT22;4940;50.900;4.672;2022-11-06T15:21:05;9.50;99.90
9802;DHT22;4940;50.900;4.672;2022-11-06T15:23:39;9.50;99.90
9802;DHT22;4940;50.900;4.672;2022-11-06T15:26:17;9.70;99.90
9802;DHT22;4940;50.900;4.672;2022-11-06T15:28:49;9.50;99.90
9802;DHT22;4940;50.900;4.672;2022-11-06T15:31:19;9.50;99.90
9802;DHT22;4940;50.900;4.672;2022-11-06T15:36:22;9.40;99.90
9802;DHT22;4940;50.900;4.672;2022-11-06T15:41:20;9.40;99.90
9802;DHT22;4940;50.900;4.672;2022-11-06T15:43:49;9.30;99.90
9802;DHT22;4940;50.900;4.672;2022-11-06T15:46:22;9.20;99.90
9802;DHT22;4940;50.900;4.672;2022-11-06T15:49:15;9.20;99.90
9802;DHT22;4940;50.900;4.672;2022-11-06T15:51:50;9.20;99.90
9802;DHT22;4940;50.900;4.672;2022-11-06T15:54:30;9.10;99.90
9802;DHT22;4940;50.900;4.672;2022-11-06T15:56:59;9.20;99.90
9802;DHT22;4940;50.900;4.672;2022-11-06T15:59:28;9.10;99.90
9802;DHT22;4940;50.900;4.672;2022-11-06T16:04:24;9.10;99.90
9802;DHT22;4940;50.900;4.672;2022-11-06T16:06:52;9.10;99.90
9802;DHT22;4940;50.900;4.672;2022-11-06T16:09:22;9.10;99.90
9802;DHT22;4940;50.900;4.672;2022-11-06T16:11:51;9.20;99.90
9802;DHT22;4940;50.900;4.672;2022-11-06T16:14:21;9.00;99.90
9802;DHT22;4940;50.900;4.672;2022-11-06T16:16:50;9.10;99.90
9802;DHT22;4940;50.900;4.672;2022-11-06T16:19:25;9.10;99.90
9802;DHT22;4940;50.900;4.672;2022-11-06T16:21:56;9.00;99.90
9802;DHT22;4940;50.900;4.672;2022-11-06T16:24:27;9.20;99.90
9802;DHT22;4940;50.900;4.672;2022-11-06T16:29:26;9.10;99.90
9802;DHT22;4940;50.900;4.672;2022-11-06T16:32:02;9.10;99.90
9802;DHT22;4940;50.900;4.672;2022-11-06T16:34:35;9.10;99.90
9802;DHT22;4940;50.900;4.672;2022-11-06T16:37:03;9.10;99.90
9802;DHT22;4940;50.900;4.672;2022-11-06T16:39:42;9.20;99.90
9802;DHT22;4940;50.900;4.672;2022-11-06T16:42:23;9.10;99.90
9802;DHT22;4940;50.900;4.672;2022-11-06T16:44:59;9.10;99.90
9802;DHT22;4940;50.900;4.672;2022-11-06T16:49:54;9.10;99.90
9802;DHT22;4940;50.900;4.672;2022-11-06T16:54:52;8.80;99.90
9802;DHT22;4940;50.900;4.672;2022-11-06T16:57:23;9.10;99.90
9802;DHT22;4940;50.900;4.672;2022-11-06T17:00:01;9.20;99.90
9802;DHT22;4940;50.900;4.672;2022-11-06T17:02:31;9.20;99.90
9802;DHT22;4940;50.900;4.672;2022-11-06T17:05:12;9.20;99.90
9802;DHT22;4940;50.900;4.672;2022-11-06T17:07:40;9.20;99.90
9802;DHT22;4940;50.900;4.672;2022-11-06T17:10:35;9.20;99.90
9802;DHT22;4940;50.900;4.672;2022-11-06T17:13:19;9.30;99.90
9802;DHT22;4940;50.900;4.672;2022-11-06T17:15:52;9.40;99.90
9802;DHT22;4940;50.900;4.672;2022-11-06T17:18:22;9.30;99.90
9802;DHT22;4940;50.900;4.672;2022-11-06T17:20:52;9.30;99.90
9802;DHT22;4940;50.900;4.672;2022-11-06T17:23:20;9.30;99.90
9802;DHT22;4940;50.900;4.672;2022-11-06T17:25:48;9.30;99.90
9802;DHT22;4940;50.900;4.672;2022-11-06T17:33:12;9.50;99.90
9802;DHT22;4940;50.900;4.672;2022-11-06T17:35:40;9.50;99.90
9802;DHT22;4940;50.900;4.672;2022-11-06T17:38:10;9.60;99.90
9802;DHT22;4940;50.900;4.672;2022-11-06T17:45:33;9.50;99.90
9802;DHT22;4940;50.900;4.672;2022-11-06T17:50:29;9.70;99.90
9802;DHT22;4940;50.900;4.672;2022-11-06T17:58:11;9.80;99.90
9802;DHT22;4940;50.900;4.672;2022-11-06T18:05:40;9.80;99.90
9802;DHT22;4940;50.900;4.672;2022-11-06T18:08:10;9.90;99.90
9802;DHT22;4940;50.900;4.672;2022-11-06T18:10:38;9.90;99.90
9802;DHT22;4940;50.900;4.672;2022-11-06T18:13:06;9.70;99.90
9802;DHT22;4940;50.900;4.672;2022-11-06T18:22:57;10.00;99.90
9802;DHT22;4940;50.900;4.672;2022-11-06T18:37:41;11.10;99.90
9802;DHT22;4940;50.900;4.672;2022-11-06T18:40:11;10.20;99.90
9802;DHT22;4940;50.900;4.672;2022-11-06T18:45:06;10.20;99.90
9802;DHT22;4940;50.900;4.672;2022-11-06T18:52:30;10.30;99.90
9802;DHT22;4940;50.900;4.672;2022-11-06T18:57:27;10.40;99.90
9802;DHT22;4940;50.900;4.672;2022-11-06T19:14:41;10.40;99.90
9802;DHT22;4940;50.900;4.672;2022-11-06T19:24:31;10.50;99.90
9802;DHT22;4940;50.900;4.672;2022-11-06T19:26:58;10.50;99.90
9802;DHT22;4940;50.900;4.672;2022-11-06T19:31:54;10.60;99.90
9802;DHT22;4940;50.900;4.672;2022-11-06T19:49:13;10.90;99.90
9802;DHT22;4940;50.900;4.672;2022-11-06T19:51:41;10.80;99.90
9802;DHT22;4940;50.900;4.672;2022-11-06T19:59:04;10.80;99.90
9802;DHT22;4940;50.900;4.672;2022-11-06T20:06:28;10.80;99.90
9802;DHT22;4940;50.900;4.672;2022-11-06T20:16:19;10.80;99.90
9802;DHT22;4940;50.900;4.672;2022-11-06T20:18:49;10.70;99.90
9802;DHT22;4940;50.900;4.672;2022-11-06T20:23:45;10.70;99.90
9802;DHT22;4940;50.900;4.672;2022-11-06T20:31:09;10.90;99.90
9802;DHT22;4940;50.900;4.672;2022-11-06T20:33:37;10.80;99.90
9802;DHT22;4940;50.900;4.672;2022-11-06T20:36:08;10.80;99.90
9802;DHT22;4940;50.900;4.672;2022-11-06T20:41:05;10.90;99.90
9802;DHT22;4940;50.900;4.672;2022-11-06T20:46:00;11.30;99.90
9802;DHT22;4940;50.900;4.672;2022-11-06T20:50:58;11.00;99.90
9802;DHT22;4940;50.900;4.672;2022-11-06T20:55:55;11.00;99.90
9802;DHT22;4940;50.900;4.672;2022-11-06T20:58:25;11.00;99.90
9802;DHT22;4940;50.900;4.672;2022-11-06T21:00:59;10.80;99.90
9802;DHT22;4940;50.900;4.672;2022-11-06T21:08:22;11.10;99.90
9802;DHT22;4940;50.900;4.672;2022-11-06T21:10:53;11.00;99.90
9802;DHT22;4940;50.900;4.672;2022-11-06T21:15:55;11.20;99.90
9802;DHT22;4940;50.900;4.672;2022-11-06T21:18:22;11.20;99.90
9802;DHT22;4940;50.900;4.672;2022-11-06T21:30:40;11.30;99.90
9802;DHT22;4940;50.900;4.672;2022-11-06T21:33:08;11.30;99.90
9802;DHT22;4940;50.900;4.672;2022-11-06T21:38:03;11.30;99.90
9802;DHT22;4940;50.900;4.672;2022-11-06T21:45:26;11.30;99.90
9802;DHT22;4940;50.900;4.672;2022-11-06T21:50:22;11.40;99.90
9802;DHT22;4940;50.900;4.672;2022-11-06T21:55:35;11.30;99.90
9802;DHT22;4940;50.900;4.672;2022-11-06T22:03:15;11.40;99.90
9802;DHT22;4940;50.900;4.672;2022-11-06T22:05:44;11.40;99.90
9802;DHT22;4940;50.900;4.672;2022-11-06T22:22:56;11.40;99.90
9802;DHT22;4940;50.900;4.672;2022-11-06T22:37:40;11.20;99.90
9802;DHT22;4940;50.900;4.672;2022-11-06T22:40:10;11.10;99.90
9802;DHT22;4940;50.900;4.672;2022-11-06T22:45:05;9.80;99.90
9802;DHT22;4940;50.900;4.672;2022-11-06T22:57:23;11.40;99.90
9802;DHT22;4940;50.900;4.672;2022-11-06T23:14:36;11.50;99.90
9802;DHT22;4940;50.900;4.672;2022-11-06T23:19:31;11.50;99.90
9802;DHT22;4940;50.900;4.672;2022-11-06T23:21:59;11.40;99.90
9802;DHT22;4940;50.900;4.672;2022-11-06T23:24:43;11.40;99.90
9802;DHT22;4940;50.900;4.672;2022-11-06T23:29:40;11.40;99.90
9802;DHT22;4940;50.900;4.672;2022-11-06T23:47:10;11.20;99.90
9802;DHT22;4940;50.900;4.672;2022-11-06T23:56:59;11.10;99.90
9802;DHT22;4940;50.900;4.672;2022-11-06T23:59:27;11.20;99.90
